Time;durP1;ratioP1;P1;durP2;ratioP2;P2;SDS_P1;SDS_P2;PMS_P1;PMS_P2;Temp;Humidity;BMP_temperature;BMP_pressure;BME280_temperature;BME280_humidity;BME280_pressure;Samples;Min_cycle;Max_cycle;Signal;HPM_P1;HPM_P2
2023/10/26 00:02:22;;;;;;;9.43;5.60;;;;;;;;;;5061732;28;20487;-58
2023/10/26 00:04:47;;;;;;;7.40;5.10;;;;;;;;;;5064569;28;20491;-58
2023/10/26 00:07:14;;;;;;;11.23;6.18;;;;;;;;;;5062231;28;20400;-58
2023/10/26 00:09:39;;;;;;;8.25;5.60;;;;;;;;;;5060396;28;20911;-58
2023/10/26 00:12:04;;;;;;;7.50;5.50;;;;;;;;;;5064316;28;20413;-58
2023/10/26 00:14:30;;;;;;;9.50;5.80;;;;;;;;;;5063880;28;20905;-58
2023/10/26 00:16:55;;;;;;;9.53;5.30;;;;;;;;;;5058849;28;20742;-58
2023/10/26 00:19:20;;;;;;;9.00;5.50;;;;;;;;;;5056301;28;20410;-58
2023/10/26 00:21:46;;;;;;;8.37;5.20;;;;;;;;;;5063974;28;20453;-58
2023/10/26 00:24:12;;;;;;;7.83;5.13;;;;;;;;;;5059175;28;20493;-59
2023/10/26 00:26:40;;;;;;;7.72;5.28;;;;;;;;;;5063708;28;20406;-58
2023/10/26 00:29:05;;;;;;;8.52;4.65;;;;;;;;;;5062641;28;20415;-58
2023/10/26 00:31:30;;;;;;;9.17;5.50;;;;;;;;;;5061484;28;20395;-58
2023/10/26 00:33:56;;;;;;;8.13;5.33;;;;;;;;;;5061725;28;20443;-58
2023/10/26 00:36:21;;;;;;;8.67;4.70;;;;;;;;;;5063002;28;20905;-58
2023/10/26 00:38:46;;;;;;;7.80;5.00;;;;;;;;;;5062166;28;20492;-58
2023/10/26 00:41:11;;;;;;;8.67;5.33;;;;;;;;;;5059173;28;20404;-59
2023/10/26 00:43:37;;;;;;;7.40;4.97;;;;;;;;;;5061723;28;20809;-58
2023/10/26 00:46:03;;;;;;;7.57;4.90;;;;;;;;;;5028003;28;20410;-58
2023/10/26 00:48:28;;;;;;;7.93;4.80;;;;;;;;;;5032210;28;20479;-57
2023/10/26 00:50:53;;;;;;;7.33;4.27;;;;;;;;;;5028211;28;20440;-58
2023/10/26 00:53:19;;;;;;;9.30;4.63;;;;;;;;;;5036036;28;20441;-58
2023/10/26 00:55:45;;;;;;;5.90;4.00;;;;;;;;;;5028006;28;20414;-58
2023/10/26 00:58:11;;;;;;;6.88;4.32;;;;;;;;;;5026687;28;20403;-58
2023/10/26 01:00:36;;;;;;;8.13;4.47;;;;;;;;;;5019888;28;20768;-58
2023/10/26 01:03:01;;;;;;;8.63;3.93;;;;;;;;;;5020240;28;20998;-58
2023/10/26 01:05:27;;;;;;;9.47;4.50;;;;;;;;;;5025146;28;20412;-58
2023/10/26 01:07:52;;;;;;;6.43;4.20;;;;;;;;;;5025484;28;20492;-58
2023/10/26 01:10:17;;;;;;;7.37;4.40;;;;;;;;;;5019810;28;20419;-57
2023/10/26 01:12:42;;;;;;;5.97;3.70;;;;;;;;;;5038757;28;20409;-58
2023/10/26 01:15:08;;;;;;;7.80;4.63;;;;;;;;;;5039618;28;20401;-58
2023/10/26 01:17:34;;;;;;;7.77;4.60;;;;;;;;;;5035677;28;20403;-58
2023/10/26 01:19:59;;;;;;;8.15;4.75;;;;;;;;;;5013549;28;20387;-57
2023/10/26 01:22:30;;;;;;;7.30;5.60;;;;;;;;;;5012438;28;20476;-58
2023/10/26 01:24:56;;;;;;;13.27;8.00;;;;;;;;;;5031522;28;21000;-58
2023/10/26 01:27:21;;;;;;;7.85;6.60;;;;;;;;;;5039640;28;20396;-58
2023/10/26 01:29:46;;;;;;;8.53;6.63;;;;;;;;;;5035526;28;20429;-58
2023/10/26 01:32:12;;;;;;;8.63;6.50;;;;;;;;;;5038827;28;20446;-58
2023/10/26 01:34:37;;;;;;;9.40;7.37;;;;;;;;;;5039819;28;20740;-58
2023/10/26 01:37:03;;;;;;;7.07;6.17;;;;;;;;;;5039088;28;20892;-58
2023/10/26 01:39:28;;;;;;;9.57;7.15;;;;;;;;;;5023671;28;20758;-57
2023/10/26 01:41:54;;;;;;;8.20;7.07;;;;;;;;;;5015048;28;20612;-58
2023/10/26 01:44:19;;;;;;;7.37;6.57;;;;;;;;;;5011715;28;20824;-58
2023/10/26 01:46:44;;;;;;;9.40;6.95;;;;;;;;;;5011959;28;20407;-57
2023/10/26 01:49:10;;;;;;;8.37;6.73;;;;;;;;;;5017168;28;20509;-58
2023/10/26 01:51:35;;;;;;;9.60;7.37;;;;;;;;;;5019177;28;20419;-58
2023/10/26 01:54:00;;;;;;;8.45;7.53;;;;;;;;;;5021902;28;20862;-60
2023/10/26 01:56:26;;;;;;;9.43;7.40;;;;;;;;;;5020007;28;20399;-58
2023/10/26 01:58:51;;;;;;;8.67;6.70;;;;;;;;;;5019659;28;20450;-58
2023/10/26 02:01:16;;;;;;;8.97;7.40;;;;;;;;;;5019357;28;20473;-58
2023/10/26 02:03:42;;;;;;;10.13;7.70;;;;;;;;;;5019531;28;20441;-58
2023/10/26 02:06:09;;;;;;;10.13;7.97;;;;;;;;;;5016737;28;20402;-58
2023/10/26 02:08:34;;;;;;;10.32;8.68;;;;;;;;;;5023019;28;20810;-58
2023/10/26 02:10:59;;;;;;;9.90;7.73;;;;;;;;;;5018304;28;20426;-58
2023/10/26 02:13:25;;;;;;;10.00;8.40;;;;;;;;;;5024579;28;20533;-58
2023/10/26 02:15:50;;;;;;;10.50;7.80;;;;;;;;;;5024939;28;20395;-58
2023/10/26 02:18:15;;;;;;;11.07;9.30;;;;;;;;;;5027385;28;20625;-58
2023/10/26 02:20:40;;;;;;;10.07;8.90;;;;;;;;;;5028688;28;20403;-58
2023/10/26 02:23:06;;;;;;;8.07;7.20;;;;;;;;;;5028846;28;20409;-58
2023/10/26 02:25:31;;;;;;;9.53;7.87;;;;;;;;;;5027172;28;20402;-58
2023/10/26 02:27:57;;;;;;;9.98;8.68;;;;;;;;;;5020026;28;20541;-58
2023/10/26 02:30:22;;;;;;;10.97;9.60;;;;;;;;;;5021534;28;20893;-58
2023/10/26 02:32:48;;;;;;;9.27;8.30;;;;;;;;;;5019767;28;20418;-58
2023/10/26 02:35:13;;;;;;;11.02;9.43;;;;;;;;;;5026366;28;20430;-58
2023/10/26 02:37:38;;;;;;;13.90;11.30;;;;;;;;;;5024002;28;20399;-58
2023/10/26 02:40:05;;;;;;;11.87;10.57;;;;;;;;;;5025491;28;20981;-58
2023/10/26 02:42:30;;;;;;;12.77;10.70;;;;;;;;;;5025945;28;20498;-58
2023/10/26 02:44:56;;;;;;;12.75;10.93;;;;;;;;;;5030467;28;20498;-58
2023/10/26 02:47:23;;;;;;;11.87;10.57;;;;;;;;;;5026657;28;20461;-58
2023/10/26 02:49:48;;;;;;;12.32;11.07;;;;;;;;;;5021105;28;20426;-58
2023/10/26 02:52:14;;;;;;;12.60;11.27;;;;;;;;;;5021489;28;20860;-58
2023/10/26 02:54:39;;;;;;;13.93;11.93;;;;;;;;;;5019281;28;20416;-58
2023/10/26 02:57:05;;;;;;;16.10;12.97;;;;;;;;;;5024668;28;20431;-58
2023/10/26 02:59:30;;;;;;;13.30;11.90;;;;;;;;;;5029399;28;20405;-58
2023/10/26 03:01:56;;;;;;;13.35;11.93;;;;;;;;;;5025794;28;20432;-58
2023/10/26 03:04:21;;;;;;;13.13;11.73;;;;;;;;;;5027124;28;20386;-57
2023/10/26 03:06:46;;;;;;;15.70;12.50;;;;;;;;;;5028909;28;20395;-58
2023/10/26 03:09:13;;;;;;;12.50;11.20;;;;;;;;;;5026348;28;20418;-57
2023/10/26 03:11:38;;;;;;;18.48;15.00;;;;;;;;;;5023164;28;20406;-58
2023/10/26 03:14:04;;;;;;;13.17;11.67;;;;;;;;;;5020345;28;20415;-58
2023/10/26 03:16:29;;;;;;;13.13;11.73;;;;;;;;;;5020303;28;20408;-58
2023/10/26 03:18:54;;;;;;;13.70;12.15;;;;;;;;;;5022844;28;20495;-57
2023/10/26 03:21:20;;;;;;;11.23;10.00;;;;;;;;;;5027211;28;20469;-58
2023/10/26 03:23:52;;;;;;;12.47;9.90;;;;;;;;;;5027123;28;20410;-58
2023/10/26 03:26:17;;;;;;;12.88;10.70;;;;;;;;;;5026004;28;20432;-58
2023/10/26 03:28:42;;;;;;;13.43;11.77;;;;;;;;;;5025445;28;20403;-58
2023/10/26 03:31:11;;;;;;;12.13;10.80;;;;;;;;;;5027502;28;20423;-58
2023/10/26 03:33:37;;;;;;;13.15;11.73;;;;;;;;;;5025305;28;20416;-58
2023/10/26 03:36:02;;;;;;;12.70;11.13;;;;;;;;;;5018781;28;20403;-58
2023/10/26 03:38:27;;;;;;;12.15;10.55;;;;;;;;;;5019982;28;20410;-58
2023/10/26 03:40:53;;;;;;;15.37;12.30;;;;;;;;;;5020469;28;20471;-58
2023/10/26 03:43:18;;;;;;;13.97;11.50;;;;;;;;;;5025427;28;20403;-57
2023/10/26 03:45:45;;;;;;;12.23;10.80;;;;;;;;;;5027142;28;20403;-58
2023/10/26 03:48:10;;;;;;;13.88;11.40;;;;;;;;;;5026662;28;20900;-58
2023/10/26 03:50:35;;;;;;;15.40;12.10;;;;;;;;;;5026419;28;20610;-58
2023/10/26 03:53:01;;;;;;;11.67;10.47;;;;;;;;;;5026229;28;20416;-59
2023/10/26 03:55:26;;;;;;;15.30;12.70;;;;;;;;;;5027015;28;20424;-58
2023/10/26 03:57:51;;;;;;;11.90;10.10;;;;;;;;;;5019568;28;20508;-58
2023/10/26 04:00:17;;;;;;;12.93;10.40;;;;;;;;;;5017146;28;20937;-58
2023/10/26 04:02:42;;;;;;;12.13;10.83;;;;;;;;;;5021480;28;20416;-58
2023/10/26 04:05:07;;;;;;;15.13;11.83;;;;;;;;;;5023516;28;20421;-58
2023/10/26 04:07:33;;;;;;;12.63;10.80;;;;;;;;;;5025897;28;20403;-58
2023/10/26 04:09:59;;;;;;;11.50;10.30;;;;;;;;;;5027992;28;20453;-58
2023/10/26 04:12:24;;;;;;;13.83;11.40;;;;;;;;;;5024472;28;21603;-58
2023/10/26 04:14:49;;;;;;;12.97;11.43;;;;;;;;;;5025617;28;20411;-58
2023/10/26 04:17:15;;;;;;;12.20;10.90;;;;;;;;;;5027034;28;20482;-58
2023/10/26 04:19:41;;;;;;;14.98;11.10;;;;;;;;;;5027117;28;20404;-58
2023/10/26 04:22:06;;;;;;;14.27;11.30;;;;;;;;;;5013265;28;20604;-58
2023/10/26 04:24:32;;;;;;;14.40;12.47;;;;;;;;;;5023816;28;20495;-58
2023/10/26 04:26:58;;;;;;;14.32;11.20;;;;;;;;;;5019430;28;20458;-58
2023/10/26 04:29:23;;;;;;;14.27;11.00;;;;;;;;;;5026493;28;20391;-58
2023/10/26 04:31:48;;;;;;;14.77;11.50;;;;;;;;;;5026783;28;20840;-58
2023/10/26 04:34:15;;;;;;;12.57;10.27;;;;;;;;;;5025078;28;20417;-58
2023/10/26 04:36:40;;;;;;;12.93;10.25;;;;;;;;;;5025963;28;20832;-58
2023/10/26 04:39:08;;;;;;;17.43;11.73;;;;;;;;;;5026186;28;20419;-58
2023/10/26 04:41:33;;;;;;;13.02;11.02;;;;;;;;;;5023199;28;20645;-58
2023/10/26 04:43:58;;;;;;;14.70;10.97;;;;;;;;;;5016833;28;20392;-58
2023/10/26 04:46:24;;;;;;;14.73;11.20;;;;;;;;;;5019268;28;20444;-58
2023/10/26 04:48:50;;;;;;;17.38;12.25;;;;;;;;;;5017573;28;20405;-58
2023/10/26 04:51:15;;;;;;;12.43;11.03;;;;;;;;;;5024553;28;20487;-58
2023/10/26 04:53:40;;;;;;;14.93;12.07;;;;;;;;;;5027358;28;20492;-58
2023/10/26 04:56:06;;;;;;;13.30;11.20;;;;;;;;;;5023947;28;20445;-59
2023/10/26 04:58:31;;;;;;;14.70;11.87;;;;;;;;;;5023650;28;20898;-58
2023/10/26 05:00:56;;;;;;;14.43;11.50;;;;;;;;;;5026787;28;20497;-58
2023/10/26 05:03:22;;;;;;;13.20;10.70;;;;;;;;;;5024738;28;20491;-58
2023/10/26 05:05:47;;;;;;;14.47;11.57;;;;;;;;;;5018038;28;20409;-58
2023/10/26 05:08:12;;;;;;;14.20;11.13;;;;;;;;;;5017764;28;20671;-58
2023/10/26 05:10:37;;;;;;;13.25;11.27;;;;;;;;;;5017033;28;20759;-58
2023/10/26 05:13:03;;;;;;;13.50;11.20;;;;;;;;;;5023350;28;20408;-58
2023/10/26 05:15:29;;;;;;;13.27;10.30;;;;;;;;;;5025011;28;20833;-58
2023/10/26 05:17:54;;;;;;;15.77;12.02;;;;;;;;;;5025997;28;21366;-58
2023/10/26 05:20:21;;;;;;;13.57;11.47;;;;;;;;;;5024268;28;20498;-58
2023/10/26 05:22:46;;;;;;;14.73;12.23;;;;;;;;;;5025011;28;20426;-58
2023/10/26 05:25:13;;;;;;;13.27;11.18;;;;;;;;;;5028404;28;20738;-58
2023/10/26 05:27:38;;;;;;;17.63;12.02;;;;;;;;;;5018596;28;20397;-58
2023/10/26 05:30:04;;;;;;;16.27;12.00;;;;;;;;;;5015230;28;20425;-58
2023/10/26 05:32:30;;;;;;;15.55;11.93;;;;;;;;;;5019005;28;20393;-58
2023/10/26 05:34:55;;;;;;;14.97;12.20;;;;;;;;;;5023261;28;20411;-58
2023/10/26 05:37:20;;;;;;;15.90;12.03;;;;;;;;;;5024403;28;20781;-58
2023/10/26 05:39:46;;;;;;;13.00;10.63;;;;;;;;;;5026585;28;20413;-58
2023/10/26 05:42:11;;;;;;;14.52;11.13;;;;;;;;;;5024697;28;20397;-58
2023/10/26 05:44:36;;;;;;;16.73;12.43;;;;;;;;;;5023705;28;20903;-58
2023/10/26 05:47:02;;;;;;;16.10;12.50;;;;;;;;;;5025086;28;20403;-57
2023/10/26 05:49:27;;;;;;;16.73;12.47;;;;;;;;;;5020922;28;20832;-58
2023/10/26 05:51:53;;;;;;;18.27;13.97;;;;;;;;;;5018453;28;20943;-58
2023/10/26 05:54:19;;;;;;;16.50;13.43;;;;;;;;;;5021149;28;20502;-58
2023/10/26 05:56:45;;;;;;;17.90;13.88;;;;;;;;;;5026341;28;20516;-58
2023/10/26 05:59:10;;;;;;;18.98;15.25;;;;;;;;;;5027241;28;20403;-58
2023/10/26 06:01:35;;;;;;;16.23;13.53;;;;;;;;;;5029801;28;20414;-58
2023/10/26 06:04:01;;;;;;;15.83;13.10;;;;;;;;;;5033945;28;20502;-59
2023/10/26 06:06:26;;;;;;;15.70;13.27;;;;;;;;;;5030237;28;20397;-58
2023/10/26 06:08:51;;;;;;;15.47;11.67;;;;;;;;;;5032103;28;20403;-58
2023/10/26 06:11:17;;;;;;;17.23;12.83;;;;;;;;;;5033797;28;20497;-58
2023/10/26 06:13:42;;;;;;;14.25;11.95;;;;;;;;;;5023875;28;20828;-58
2023/10/26 06:16:12;;;;;;;14.77;11.97;;;;;;;;;;5022695;28;20406;-57
2023/10/26 06:18:38;;;;;;;15.05;12.52;;;;;;;;;;5029381;28;20403;-58
2023/10/26 06:21:03;;;;;;;13.93;11.80;;;;;;;;;;5030979;28;20910;-57
2023/10/26 06:23:29;;;;;;;14.48;12.30;;;;;;;;;;5026415;28;20906;-58
2023/10/26 06:25:58;;;;;;;18.63;14.23;;;;;;;;;;5032369;28;20484;-58
2023/10/26 06:28:23;;;;;;;14.50;12.52;;;;;;;;;;5033617;28;20391;-58
2023/10/26 06:30:49;;;;;;;16.27;12.63;;;;;;;;;;5031106;28;20423;-58
2023/10/26 06:33:14;;;;;;;15.23;11.97;;;;;;;;;;5031257;28;20807;-58
2023/10/26 06:35:39;;;;;;;13.87;11.80;;;;;;;;;;5026733;28;20412;-58
2023/10/26 06:38:05;;;;;;;14.77;12.40;;;;;;;;;;5021241;28;20406;-58
2023/10/26 06:40:30;;;;;;;13.63;10.77;;;;;;;;;;5023259;28;20470;-58
2023/10/26 06:42:55;;;;;;;13.13;11.37;;;;;;;;;;5033345;28;20415;-57
2023/10/26 06:45:20;;;;;;;14.63;11.97;;;;;;;;;;5030476;28;20824;-57
2023/10/26 06:47:46;;;;;;;14.20;11.35;;;;;;;;;;5029475;28;20490;-57
2023/10/26 06:50:11;;;;;;;14.60;11.30;;;;;;;;;;5033985;28;20469;-57
2023/10/26 06:52:36;;;;;;;14.13;10.93;;;;;;;;;;5030883;28;20414;-57
2023/10/26 06:55:02;;;;;;;17.60;11.67;;;;;;;;;;5028833;28;20951;-58
2023/10/26 06:57:27;;;;;;;14.93;11.90;;;;;;;;;;5030593;28;20448;-57
2023/10/26 06:59:52;;;;;;;14.15;10.77;;;;;;;;;;5039361;28;20417;-57
2023/10/26 07:02:18;;;;;;;14.17;11.30;;;;;;;;;;5044843;28;20910;-57
2023/10/26 07:04:43;;;;;;;14.70;11.03;;;;;;;;;;5060137;28;20453;-58
2023/10/26 07:07:08;;;;;;;15.10;10.97;;;;;;;;;;5053540;28;20389;-58
2023/10/26 07:09:35;;;;;;;15.13;11.85;;;;;;;;;;5065212;28;20403;-58
2023/10/26 07:12:00;;;;;;;13.32;11.27;;;;;;;;;;5062804;28;20412;-61
2023/10/26 07:14:26;;;;;;;11.90;10.60;;;;;;;;;;5062907;28;20425;-57
2023/10/26 07:16:51;;;;;;;13.93;9.17;;;;;;;;;;5064446;28;20918;-57
2023/10/26 07:19:17;;;;;;;13.77;12.13;;;;;;;;;;5062057;28;20404;-57
2023/10/26 07:21:44;;;;;;;19.90;11.80;;;;;;;;;;5067903;28;20407;-57
2023/10/26 07:24:09;;;;;;;74.38;17.42;;;;;;;;;;5070514;28;20396;-58
2023/10/26 07:26:35;;;;;;;50.63;15.13;;;;;;;;;;5061349;28;20553;-58
2023/10/26 07:29:00;;;;;;;16.57;10.83;;;;;;;;;;5066604;28;20422;-57
2023/10/26 07:31:25;;;;;;;12.73;11.10;;;;;;;;;;5062722;28;20418;-57
2023/10/26 07:33:51;;;;;;;14.70;11.90;;;;;;;;;;5061678;28;20949;-58
2023/10/26 07:36:16;;;;;;;21.27;12.57;;;;;;;;;;5055020;28;20418;-58
2023/10/26 07:38:41;;;;;;;20.07;12.50;;;;;;;;;;5063286;28;20756;-58
2023/10/26 07:41:07;;;;;;;30.53;10.90;;;;;;;;;;5060149;28;20410;-58
2023/10/26 07:43:34;;;;;;;30.17;11.73;;;;;;;;;;5064172;28;20411;-57
2023/10/26 07:45:59;;;;;;;33.20;12.50;;;;;;;;;;5047545;28;20935;-58
2023/10/26 07:48:24;;;;;;;52.93;13.67;;;;;;;;;;5059129;28;20388;-57
2023/10/26 07:50:51;;;;;;;25.87;12.60;;;;;;;;;;5063478;28;20451;-57
2023/10/26 07:53:16;;;;;;;48.63;14.33;;;;;;;;;;5064538;28;20408;-57
2023/10/26 07:55:41;;;;;;;123.88;17.08;;;;;;;;;;5060328;28;21013;-58
2023/10/26 07:58:06;;;;;;;35.60;13.67;;;;;;;;;;5062970;28;20416;-57
2023/10/26 08:00:32;;;;;;;17.97;13.07;;;;;;;;;;5053609;28;20897;-58
2023/10/26 08:02:58;;;;;;;40.83;13.00;;;;;;;;;;5059023;28;20396;-57
2023/10/26 08:05:23;;;;;;;13.93;11.52;;;;;;;;;;5061967;28;20393;-57
2023/10/26 08:07:49;;;;;;;15.07;10.60;;;;;;;;;;5061096;28;20998;-57
2023/10/26 08:10:14;;;;;;;16.70;12.60;;;;;;;;;;5059613;28;20427;-57
2023/10/26 08:12:39;;;;;;;21.85;13.60;;;;;;;;;;5058229;28;20441;-57
2023/10/26 08:15:05;;;;;;;24.57;13.33;;;;;;;;;;5062605;28;20407;-58
2023/10/26 08:17:32;;;;;;;25.97;12.33;;;;;;;;;;5059892;28;20746;-58
2023/10/26 08:19:58;;;;;;;31.30;13.50;;;;;;;;;;5057546;28;20486;-57
2023/10/26 08:22:24;;;;;;;92.43;15.10;;;;;;;;;;5064034;28;20399;-57
2023/10/26 08:24:49;;;;;;;61.85;14.68;;;;;;;;;;5064078;28;20407;-57
2023/10/26 08:27:14;;;;;;;24.23;13.03;;;;;;;;;;5058717;28;20424;-57
2023/10/26 08:29:40;;;;;;;99.37;16.23;;;;;;;;;;5063762;28;21192;-57
2023/10/26 08:32:05;;;;;;;53.60;14.40;;;;;;;;;;5063475;28;20408;-57
2023/10/26 08:34:31;;;;;;;13.57;11.90;;;;;;;;;;5057668;28;20491;-57
2023/10/26 08:36:58;;;;;;;44.43;14.13;;;;;;;;;;5064358;28;20461;-58
2023/10/26 08:39:24;;;;;;;17.83;12.80;;;;;;;;;;5061894;28;20414;-58
2023/10/26 08:41:51;;;;;;;20.70;13.17;;;;;;;;;;5060442;28;20404;-58
2023/10/26 08:44:17;;;;;;;16.13;12.02;;;;;;;;;;5062316;28;20414;-57
2023/10/26 08:46:43;;;;;;;19.60;12.85;;;;;;;;;;5062675;28;20452;-57
2023/10/26 08:49:08;;;;;;;18.70;12.20;;;;;;;;;;5059872;28;20400;-58
2023/10/26 08:51:34;;;;;;;27.70;13.60;;;;;;;;;;5061691;28;20407;-57
2023/10/26 08:54:00;;;;;;;15.83;12.90;;;;;;;;;;5063179;28;20412;-57
2023/10/26 08:56:25;;;;;;;22.00;13.30;;;;;;;;;;5061568;28;20396;-57
2023/10/26 08:58:56;;;;;;;18.40;12.90;;;;;;;;;;5042918;28;20485;-57
2023/10/26 09:01:21;;;;;;;14.52;11.50;;;;;;;;;;5048252;28;20429;-58
2023/10/26 09:03:47;;;;;;;16.03;12.87;;;;;;;;;;5027608;28;20434;-57
2023/10/26 09:06:12;;;;;;;19.33;13.13;;;;;;;;;;5024750;28;20430;-57
2023/10/26 09:08:37;;;;;;;18.10;13.30;;;;;;;;;;5027142;28;20407;-57
2023/10/26 09:11:11;;;;;;;15.23;12.73;;;;;;;;;;5026872;28;20913;-58
2023/10/26 09:13:37;;;;;;;15.50;12.80;;;;;;;;;;5023392;28;20399;-58
2023/10/26 09:16:03;;;;;;;15.20;12.00;;;;;;;;;;5008234;28;20770;-58
2023/10/26 09:18:28;;;;;;;14.65;12.18;;;;;;;;;;5027235;28;20474;-57
2023/10/26 09:21:01;;;;;;;17.60;13.43;;;;;;;;;;5025956;28;20836;-57
2023/10/26 09:23:27;;;;;;;13.52;11.90;;;;;;;;;;5017470;28;20422;-57
2023/10/26 09:25:56;;;;;;;15.05;13.25;;;;;;;;;;5027403;28;20403;-58
2023/10/26 09:28:22;;;;;;;16.08;13.18;;;;;;;;;;5025887;28;20445;-57
2023/10/26 09:30:47;;;;;;;15.87;13.63;;;;;;;;;;5021950;28;20411;-57
2023/10/26 09:33:23;;;;;;;15.10;13.00;;;;;;;;;;5023686;28;20482;-57
2023/10/26 09:35:48;;;;;;;18.52;14.38;;;;;;;;;;5025607;28;20407;-58
2023/10/26 09:38:14;;;;;;;15.70;13.97;;;;;;;;;;5018334;28;20399;-56
2023/10/26 09:40:40;;;;;;;15.80;13.50;;;;;;;;;;5026946;28;20407;-56
2023/10/26 09:43:05;;;;;;;18.30;15.35;;;;;;;;;;5025877;28;20427;-57
2023/10/26 09:45:30;;;;;;;18.33;15.30;;;;;;;;;;5025311;28;20433;-56
2023/10/26 09:47:56;;;;;;;17.47;15.17;;;;;;;;;;5025781;28;20423;-56
2023/10/26 09:50:21;;;;;;;17.67;15.53;;;;;;;;;;5018262;28;20417;-56
2023/10/26 09:52:46;;;;;;;17.00;15.17;;;;;;;;;;5025470;28;20417;-56
2023/10/26 09:55:12;;;;;;;16.77;14.73;;;;;;;;;;5024584;28;20509;-56
2023/10/26 09:57:43;;;;;;;17.90;15.20;;;;;;;;;;5026332;28;20489;-56
2023/10/26 10:00:13;;;;;;;18.23;15.50;;;;;;;;;;5024013;28;20533;-57
2023/10/26 10:02:38;;;;;;;18.50;15.57;;;;;;;;;;5043572;28;20552;-56
2023/10/26 10:05:04;;;;;;;18.13;15.90;;;;;;;;;;5045466;28;20523;-57
2023/10/26 10:07:40;;;;;;;17.27;14.77;;;;;;;;;;5046132;28;20748;-56
2023/10/26 10:10:06;;;;;;;18.25;15.25;;;;;;;;;;5043539;28;20413;-56
2023/10/26 10:12:32;;;;;;;18.15;16.00;;;;;;;;;;5045973;28;20412;-56
2023/10/26 10:14:58;;;;;;;18.20;15.43;;;;;;;;;;5046661;28;20892;-56
2023/10/26 10:17:43;;;;;;;19.17;16.47;;;;;;;;;;5043781;28;20421;-56
2023/10/26 10:20:14;;;;;;;18.47;16.27;;;;;;;;;;5043799;28;20402;-56
2023/10/26 10:22:40;;;;;;;21.70;16.98;;;;;;;;;;5046297;28;20405;-56
2023/10/26 10:25:05;;;;;;;18.70;16.10;;;;;;;;;;5044677;28;20815;-56
2023/10/26 10:27:31;;;;;;;20.37;17.37;;;;;;;;;;5044592;28;20447;-56
2023/10/26 10:29:56;;;;;;;21.02;17.73;;;;;;;;;;5046492;28;20406;-56
2023/10/26 10:32:40;;;;;;;20.10;16.87;;;;;;;;;;5027772;28;20377;-56
2023/10/26 10:35:05;;;;;;;19.83;16.70;;;;;;;;;;5020150;28;20442;-57
2023/10/26 10:37:31;;;;;;;19.48;17.08;;;;;;;;;;5012009;28;21261;-54
2023/10/26 10:40:09;;;;;;;23.73;19.83;;;;;;;;;;5024890;28;21096;-55
2023/10/26 10:42:34;;;;;;;21.33;18.65;;;;;;;;;;5032410;28;20908;-56
2023/10/26 10:44:59;;;;;;;20.40;17.33;;;;;;;;;;5019663;28;20410;-56
2023/10/26 10:47:27;;;;;;;24.73;19.87;;;;;;;;;;5030491;28;20399;-56
2023/10/26 10:49:52;;;;;;;20.08;17.60;;;;;;;;;;5032864;28;20414;-56
2023/10/26 10:52:19;;;;;;;22.80;19.17;;;;;;;;;;5031432;28;20414;-56
2023/10/26 10:54:49;;;;;;;21.60;19.15;;;;;;;;;;5030549;28;20583;-56
2023/10/26 10:57:14;;;;;;;22.92;18.83;;;;;;;;;;5023594;28;20415;-56
2023/10/26 10:59:39;;;;;;;21.77;17.50;;;;;;;;;;5026097;28;20753;-56
2023/10/26 11:02:08;;;;;;;21.00;18.17;;;;;;;;;;5010122;28;20446;-56
2023/10/26 11:04:33;;;;;;;22.20;18.88;;;;;;;;;;5009577;28;20447;-56
2023/10/26 11:06:58;;;;;;;23.13;19.50;;;;;;;;;;5014622;28;20858;-56
2023/10/26 11:09:25;;;;;;;21.10;18.10;;;;;;;;;;5017561;28;20393;-56
2023/10/26 11:11:51;;;;;;;20.77;17.30;;;;;;;;;;5011755;28;20483;-56
2023/10/26 11:14:18;;;;;;;21.55;18.40;;;;;;;;;;5009993;28;20401;-56
2023/10/26 11:16:43;;;;;;;19.67;17.57;;;;;;;;;;5012242;28;20431;-56
2023/10/26 11:19:09;;;;;;;21.20;18.42;;;;;;;;;;5006614;28;20707;-55
2023/10/26 11:21:34;;;;;;;63.13;47.83;;;;;;;;;;5003485;28;20506;-56
2023/10/26 11:24:00;;;;;;;43.07;32.93;;;;;;;;;;5004754;28;20462;-56
2023/10/26 11:26:25;;;;;;;19.55;16.75;;;;;;;;;;5006420;28;20461;-56
2023/10/26 11:28:50;;;;;;;26.87;23.97;;;;;;;;;;5011390;28;20405;-56
2023/10/26 11:31:16;;;;;;;18.90;16.83;;;;;;;;;;5009226;28;21853;-56
2023/10/26 11:33:42;;;;;;;18.37;16.37;;;;;;;;;;5011576;28;20926;-56
2023/10/26 11:36:09;;;;;;;18.33;15.60;;;;;;;;;;5011740;28;20448;-57
2023/10/26 11:38:35;;;;;;;16.83;14.95;;;;;;;;;;5010172;28;20396;-56
2023/10/26 11:41:00;;;;;;;17.77;15.30;;;;;;;;;;5009373;28;20413;-58
2023/10/26 11:43:32;;;;;;;17.87;15.77;;;;;;;;;;5004087;28;20405;-56
2023/10/26 11:45:59;;;;;;;17.38;15.43;;;;;;;;;;5009952;28;20468;-56
2023/10/26 11:48:24;;;;;;;16.77;14.55;;;;;;;;;;5004103;28;20399;-56
2023/10/26 11:50:50;;;;;;;19.40;15.97;;;;;;;;;;5011268;28;20439;-56
2023/10/26 11:53:15;;;;;;;19.00;16.20;;;;;;;;;;5009070;28;20441;-56
2023/10/26 11:55:40;;;;;;;19.17;16.60;;;;;;;;;;5010694;28;20897;-56
2023/10/26 11:58:06;;;;;;;18.80;16.08;;;;;;;;;;5010794;28;20459;-57
2023/10/26 12:00:31;;;;;;;18.13;15.17;;;;;;;;;;5010486;28;20432;-55
2023/10/26 12:02:56;;;;;;;19.63;15.73;;;;;;;;;;5030163;28;20406;-56
2023/10/26 12:05:23;;;;;;;19.73;16.30;;;;;;;;;;5022665;28;20399;-56
2023/10/26 12:07:48;;;;;;;18.37;15.43;;;;;;;;;;5023914;28;20410;-56
2023/10/26 12:10:16;;;;;;;19.27;16.85;;;;;;;;;;5022543;28;20409;-56
2023/10/26 12:12:44;;;;;;;18.75;16.70;;;;;;;;;;5027516;28;21355;-56
2023/10/26 12:15:09;;;;;;;19.43;16.53;;;;;;;;;;5031243;28;20415;-56
2023/10/26 12:17:34;;;;;;;20.83;16.27;;;;;;;;;;5028462;28;20887;-56
2023/10/26 12:20:00;;;;;;;18.93;16.40;;;;;;;;;;5040811;28;20405;-56
2023/10/26 12:22:25;;;;;;;21.75;17.88;;;;;;;;;;5043521;28;20477;-56
2023/10/26 12:24:50;;;;;;;19.57;16.17;;;;;;;;;;5047349;28;20409;-56
2023/10/26 12:27:18;;;;;;;23.13;17.80;;;;;;;;;;5047810;28;20416;-56
2023/10/26 12:29:43;;;;;;;23.60;18.10;;;;;;;;;;5043054;28;20504;-56
2023/10/26 12:32:09;;;;;;;22.60;17.57;;;;;;;;;;5028688;28;20948;-56
2023/10/26 12:34:34;;;;;;;22.20;18.33;;;;;;;;;;5029701;28;20866;-56
2023/10/26 12:36:59;;;;;;;21.87;18.80;;;;;;;;;;5030821;28;20818;-56
2023/10/26 12:39:25;;;;;;;32.03;24.07;;;;;;;;;;5020857;28;20394;-56
2023/10/26 12:41:50;;;;;;;25.50;19.73;;;;;;;;;;5022021;28;20466;-56
2023/10/26 12:44:16;;;;;;;23.40;17.80;;;;;;;;;;5024226;28;20403;-55
2023/10/26 12:46:41;;;;;;;20.43;16.57;;;;;;;;;;5029482;28;21267;-56
2023/10/26 12:49:07;;;;;;;19.77;16.65;;;;;;;;;;5027626;28;20417;-56
2023/10/26 12:51:32;;;;;;;20.90;16.67;;;;;;;;;;5028950;28;20407;-56
2023/10/26 12:53:57;;;;;;;18.90;15.67;;;;;;;;;;5015370;28;20410;-56
2023/10/26 12:56:23;;;;;;;20.77;16.50;;;;;;;;;;5028196;28;20396;-56
2023/10/26 12:58:48;;;;;;;20.63;17.27;;;;;;;;;;5029122;28;20457;-56
2023/10/26 13:01:13;;;;;;;20.70;16.80;;;;;;;;;;5017453;28;20407;-56
2023/10/26 13:03:38;;;;;;;26.10;20.67;;;;;;;;;;5001685;28;20566;-56
2023/10/26 13:06:04;;;;;;;20.97;16.63;;;;;;;;;;5002134;28;20423;-56
2023/10/26 13:08:29;;;;;;;23.42;17.85;;;;;;;;;;5008281;28;20415;-56
2023/10/26 13:10:55;;;;;;;22.40;17.47;;;;;;;;;;5009743;28;20563;-56
2023/10/26 13:13:20;;;;;;;21.10;15.97;;;;;;;;;;5009130;28;20876;-56
2023/10/26 13:15:45;;;;;;;20.47;15.90;;;;;;;;;;5009804;28;20453;-56
2023/10/26 13:18:11;;;;;;;16.85;14.30;;;;;;;;;;5005073;28;20408;-56
2023/10/26 13:20:36;;;;;;;16.70;14.40;;;;;;;;;;5009324;28;20446;-56
2023/10/26 13:23:01;;;;;;;16.97;14.57;;;;;;;;;;5004367;28;20415;-57
2023/10/26 13:25:27;;;;;;;16.40;14.23;;;;;;;;;;5003389;28;20464;-56
2023/10/26 13:27:53;;;;;;;18.48;14.35;;;;;;;;;;5001422;28;20475;-56
2023/10/26 13:30:18;;;;;;;19.90;15.47;;;;;;;;;;5003225;28;20792;-56
2023/10/26 13:32:44;;;;;;;18.67;15.25;;;;;;;;;;5010897;28;20446;-56
2023/10/26 13:35:09;;;;;;;16.50;14.20;;;;;;;;;;5008155;28;20415;-57
2023/10/26 13:37:35;;;;;;;40.23;22.70;;;;;;;;;;5008525;28;20413;-57
2023/10/26 13:40:00;;;;;;;20.77;16.43;;;;;;;;;;5009813;28;20413;-60
2023/10/26 13:42:26;;;;;;;29.63;19.63;;;;;;;;;;5008873;28;20437;-57
2023/10/26 13:44:52;;;;;;;38.28;22.48;;;;;;;;;;5009262;28;21109;-57
2023/10/26 13:47:17;;;;;;;19.57;15.47;;;;;;;;;;5001365;28;21137;-57
2023/10/26 13:49:43;;;;;;;17.60;15.03;;;;;;;;;;5000981;28;20448;-57
2023/10/26 13:52:08;;;;;;;17.90;15.63;;;;;;;;;;5001796;28;20448;-57
2023/10/26 13:54:34;;;;;;;18.30;14.73;;;;;;;;;;5007279;28;21260;-57
2023/10/26 13:56:59;;;;;;;16.97;14.60;;;;;;;;;;5009227;28;20422;-57
2023/10/26 13:59:24;;;;;;;17.40;14.57;;;;;;;;;;5006796;28;20870;-57
2023/10/26 14:01:50;;;;;;;16.67;14.85;;;;;;;;;;5019859;28;20422;-57
2023/10/26 14:04:15;;;;;;;18.10;14.77;;;;;;;;;;5029085;28;20489;-57
2023/10/26 14:06:41;;;;;;;18.03;14.90;;;;;;;;;;5027303;28;20563;-57
2023/10/26 14:09:06;;;;;;;17.47;15.10;;;;;;;;;;5022436;28;20402;-57
2023/10/26 14:11:32;;;;;;;17.20;14.70;;;;;;;;;;5021149;28;20417;-57
2023/10/26 14:13:58;;;;;;;16.77;13.80;;;;;;;;;;5032120;28;20406;-58